createdAt,value
2023-05-03T00:01:28.994Z,25.00
2023-05-03T00:03:55.420Z,26.33
2023-05-03T00:06:22.204Z,26.33
2023-05-03T00:08:48.677Z,27.33
2023-05-03T00:11:15.154Z,26.50
2023-05-03T00:13:42.400Z,26.00
2023-05-03T00:16:09.005Z,26.50
2023-05-03T00:18:35.682Z,26.50
2023-05-03T00:21:02.262Z,26.67
2023-05-03T00:23:28.893Z,25.33
2023-05-03T00:25:56.112Z,26.25
2023-05-03T00:28:22.956Z,25.25
2023-05-03T00:30:50.001Z,25.67
2023-05-03T00:33:19.456Z,25.67
2023-05-03T00:35:45.931Z,24.33
2023-05-03T00:38:14.291Z,26.25
2023-05-03T00:40:41.080Z,26.00
2023-05-03T00:43:07.748Z,25.75
2023-05-03T00:45:34.694Z,26.00
2023-05-03T00:48:01.586Z,27.00
2023-05-03T00:50:28.305Z,24.33
2023-05-03T00:52:54.730Z,26.25
2023-05-03T00:55:21.470Z,27.00
2023-05-03T00:57:50.651Z,25.75
2023-05-03T01:00:17.914Z,28.75
2023-05-03T01:02:44.393Z,27.75
2023-05-03T01:05:11.005Z,27.25
2023-05-03T01:07:49.830Z,27.50
2023-05-03T01:10:24.476Z,25.00
2023-05-03T01:12:56.090Z,27.00
2023-05-03T01:15:40.935Z,26.00
2023-05-03T01:18:12.468Z,23.00
2023-05-03T01:20:41.467Z,24.00
2023-05-03T01:23:14.633Z,25.00
2023-05-03T01:25:41.803Z,24.00
2023-05-03T01:28:08.281Z,23.00
2023-05-03T01:30:36.320Z,23.00
2023-05-03T01:33:21.305Z,21.33
2023-05-03T01:35:51.896Z,15.00
2023-05-03T01:38:20.791Z,17.75
2023-05-03T01:40:48.829Z,18.25
2023-05-03T01:43:16.766Z,17.50
2023-05-03T01:45:43.518Z,16.50
2023-05-03T01:48:11.442Z,15.67
2023-05-03T01:50:37.934Z,18.25
2023-05-03T01:53:04.522Z,17.00
2023-05-03T01:55:31.258Z,16.50
2023-05-03T01:57:57.742Z,14.50
2023-05-03T02:00:24.231Z,14.75
2023-05-03T02:02:50.764Z,14.25
2023-05-03T02:05:17.246Z,17.25
2023-05-03T02:07:43.738Z,15.50
2023-05-03T02:10:14.935Z,5.25
2023-05-03T02:12:42.242Z,16.75
2023-05-03T02:15:09.148Z,16.50
2023-05-03T02:17:35.934Z,15.25
2023-05-03T02:20:02.679Z,12.50
2023-05-03T02:22:29.306Z,16.75
2023-05-03T02:24:57.156Z,15.50
2023-05-03T02:27:26.526Z,15.75
2023-05-03T02:29:53.075Z,16.33
2023-05-03T02:32:21.951Z,18.67
2023-05-03T02:34:49.819Z,17.50
2023-05-03T02:37:16.451Z,16.00
2023-05-03T02:39:42.885Z,0.00
2023-05-03T02:42:09.558Z,15.67
2023-05-03T02:44:36.078Z,15.33
2023-05-03T02:47:03.098Z,16.00
2023-05-03T02:49:35.758Z,18.00
2023-05-03T02:52:02.335Z,17.33
2023-05-03T02:54:31.580Z,17.50
2023-05-03T02:57:02.199Z,19.50
2023-05-03T02:59:32.991Z,16.00
2023-05-03T03:02:00.305Z,17.25
2023-05-03T03:04:28.001Z,18.75
2023-05-03T03:06:56.890Z,18.25
2023-05-03T03:09:28.212Z,20.25
2023-05-03T03:11:56.037Z,20.33
2023-05-03T03:14:23.689Z,21.75
2023-05-03T03:16:51.673Z,18.50
2023-05-03T03:19:18.300Z,17.00
2023-05-03T03:21:45.146Z,15.00
2023-05-03T03:24:11.671Z,23.00
2023-05-03T03:26:39.723Z,20.00
2023-05-03T03:29:06.179Z,10.33
2023-05-03T03:31:33.224Z,15.50
2023-05-03T03:33:59.760Z,14.50
2023-05-03T03:36:28.030Z,15.75
2023-05-03T03:38:57.526Z,13.25
2023-05-03T03:41:36.106Z,15.00
2023-05-03T03:44:02.875Z,16.25
2023-05-03T03:46:29.385Z,15.00
2023-05-03T03:49:01.425Z,14.25
2023-05-03T03:54:57.282Z,15.00
2023-05-03T04:03:47.285Z,15.00
2023-05-03T04:07:18.783Z,16.00
2023-05-03T04:13:07.341Z,15.00
2023-05-03T04:15:33.792Z,13.00
2023-05-03T04:18:00.401Z,14.00
2023-05-03T04:20:27.147Z,13.25
2023-05-03T04:22:53.578Z,14.25
2023-05-03T04:25:21.884Z,13.25
2023-05-03T04:27:48.871Z,13.00
2023-05-03T04:30:15.737Z,11.00
2023-05-03T04:32:42.987Z,13.00
2023-05-03T04:35:10.951Z,13.00
2023-05-03T04:37:38.167Z,12.00
2023-05-03T04:40:07.686Z,12.75
2023-05-03T04:42:34.381Z,13.00
2023-05-03T04:45:03.178Z,11.00
2023-05-03T04:47:29.897Z,12.00
2023-05-03T04:49:56.292Z,10.50
2023-05-03T04:52:22.716Z,12.75
2023-05-03T04:54:49.120Z,9.50
2023-05-03T04:57:16.175Z,13.00
2023-05-03T04:59:42.644Z,15.00
2023-05-03T05:02:09.127Z,10.00
2023-05-03T05:04:35.618Z,13.25
2023-05-03T05:07:02.150Z,8.75
2023-05-03T05:09:29.077Z,10.50
2023-05-03T05:11:57.253Z,11.00
2023-05-03T05:14:24.098Z,8.75
2023-05-03T05:16:50.757Z,9.25
2023-05-03T05:19:17.166Z,10.25
2023-05-03T05:21:43.704Z,9.75
2023-05-03T05:24:10.267Z,8.75
2023-05-03T05:26:36.715Z,10.25
2023-05-03T05:29:03.524Z,11.50
2023-05-03T05:31:29.999Z,10.00
2023-05-03T05:33:56.503Z,9.25
2023-05-03T05:36:23.009Z,9.00
2023-05-03T05:38:49.536Z,10.00
2023-05-03T05:41:15.960Z,10.25
2023-05-03T05:43:42.372Z,5.00
2023-05-03T05:46:08.962Z,8.25
2023-05-03T05:48:35.430Z,8.00
2023-05-03T05:51:02.160Z,9.00
2023-05-03T05:53:28.781Z,10.75
2023-05-03T05:55:55.270Z,9.75
2023-05-03T05:58:21.706Z,8.50
2023-05-03T06:00:49.298Z,10.50
2023-05-03T06:03:16.293Z,8.75
2023-05-03T06:05:43.047Z,9.75
2023-05-03T06:08:10.634Z,9.00
2023-05-03T06:10:36.998Z,7.25
2023-05-03T06:13:03.906Z,8.00
2023-05-03T06:15:30.513Z,9.25
2023-05-03T06:17:57.273Z,8.75
2023-05-03T06:20:24.558Z,11.25
2023-05-03T06:22:50.996Z,10.25
2023-05-03T06:25:18.143Z,10.50
2023-05-03T06:27:44.745Z,9.25
2023-05-03T06:30:11.506Z,10.50
2023-05-03T06:32:39.652Z,11.50
2023-05-03T06:35:06.311Z,8.25
2023-05-03T06:37:32.704Z,9.00
2023-05-03T06:39:59.103Z,9.00
2023-05-03T06:42:25.620Z,7.00
2023-05-03T06:44:52.162Z,6.00
2023-05-03T06:47:20.313Z,6.25
2023-05-03T06:49:46.707Z,9.00
2023-05-03T06:52:13.112Z,7.75
2023-05-03T06:54:40.465Z,8.25
2023-05-03T06:57:07.747Z,8.50
2023-05-03T06:59:34.196Z,8.50
2023-05-03T07:02:00.881Z,8.25
2023-05-03T07:04:27.511Z,10.00
2023-05-03T07:06:56.770Z,10.25
2023-05-03T07:09:35.253Z,12.25
2023-05-03T07:12:11.407Z,10.50
2023-05-03T07:14:38.683Z,11.75
2023-05-03T07:17:05.058Z,5.50
2023-05-03T07:19:32.172Z,12.00
2023-05-03T07:21:58.958Z,9.75
2023-05-03T07:24:26.124Z,9.00
2023-05-03T07:26:53.211Z,9.50
2023-05-03T07:29:19.629Z,8.00
2023-05-03T07:31:46.176Z,7.50
2023-05-03T07:34:12.642Z,8.50
2023-05-03T07:36:39.318Z,7.25
2023-05-03T07:39:05.738Z,7.00
2023-05-03T07:41:32.119Z,10.00
2023-05-03T07:43:58.518Z,7.25
2023-05-03T07:46:24.969Z,6.25
2023-05-03T07:48:51.421Z,6.00
2023-05-03T07:51:18.018Z,7.00
2023-05-03T07:53:44.569Z,7.25
2023-05-03T07:56:11.169Z,3.75
2023-05-03T07:58:40.647Z,8.75
2023-05-03T08:01:07.619Z,10.75
2023-05-03T08:03:34.137Z,3.25
2023-05-03T08:06:01.166Z,10.00
2023-05-03T08:08:27.951Z,8.00
2023-05-03T08:10:56.997Z,6.75
2023-05-03T08:13:23.386Z,8.25
2023-05-03T08:15:50.226Z,6.75
2023-05-03T08:18:16.806Z,5.00
2023-05-03T08:20:43.810Z,4.25
2023-05-03T08:23:11.257Z,5.00
2023-05-03T08:25:37.846Z,6.00
2023-05-03T08:28:04.653Z,5.25
2023-05-03T08:30:31.567Z,4.50
2023-05-03T08:32:58.284Z,3.00
2023-05-03T08:35:25.384Z,4.50
2023-05-03T08:37:55.263Z,3.00
2023-05-03T08:40:22.443Z,3.00
2023-05-03T08:42:50.157Z,3.25
2023-05-03T08:45:17.080Z,3.75
2023-05-03T08:47:45.490Z,3.25
2023-05-03T08:50:12.814Z,3.25
2023-05-03T08:52:39.849Z,3.25
2023-05-03T08:55:07.680Z,4.00
2023-05-03T08:57:35.669Z,3.50
2023-05-03T09:00:06.056Z,3.75
2023-05-03T09:02:37.044Z,4.00
2023-05-03T09:05:05.711Z,3.00
2023-05-03T09:07:32.327Z,3.00
2023-05-03T09:10:00.450Z,4.00
2023-05-03T09:12:33.833Z,4.00
2023-05-03T09:15:00.946Z,3.25
2023-05-03T09:17:29.844Z,3.50
2023-05-03T09:19:57.237Z,4.00
2023-05-03T09:22:30.982Z,3.00
2023-05-03T09:25:01.068Z,4.25
2023-05-03T09:27:27.980Z,2.25
2023-05-03T09:29:54.693Z,4.00
2023-05-03T09:32:25.204Z,4.25
2023-05-03T09:34:51.969Z,5.00
2023-05-03T09:37:25.004Z,4.25
2023-05-03T09:40:04.817Z,4.25
2023-05-03T09:42:32.150Z,3.50
2023-05-03T09:44:58.778Z,3.75
2023-05-03T09:47:25.765Z,4.25
2023-05-03T09:49:52.408Z,4.00
2023-05-03T09:52:19.584Z,4.00
2023-05-03T09:54:46.049Z,5.75
2023-05-03T09:57:14.844Z,7.00
2023-05-03T09:59:42.207Z,3.75
2023-05-03T10:02:08.953Z,2.00
2023-05-03T10:04:47.843Z,2.75
2023-05-03T10:07:14.909Z,3.00
2023-05-03T10:09:45.398Z,2.75
2023-05-03T10:12:15.084Z,3.50
2023-05-03T10:14:42.862Z,3.00
2023-05-03T10:17:32.033Z,3.00
2023-05-03T10:20:14.185Z,9.25
2023-05-03T10:22:59.478Z,1.75
2023-05-03T10:25:25.909Z,3.00
2023-05-03T10:27:52.789Z,3.00
2023-05-03T10:30:29.933Z,4.75
2023-05-03T10:32:57.131Z,4.25
2023-05-03T10:35:26.529Z,2.00
2023-05-03T10:37:52.996Z,3.00
2023-05-03T10:40:19.594Z,3.00
2023-05-03T10:42:46.293Z,3.00
2023-05-03T10:45:20.659Z,3.00
2023-05-03T10:48:07.364Z,3.50
2023-05-03T10:50:34.259Z,4.25
2023-05-03T10:53:00.664Z,4.00
2023-05-03T10:55:30.604Z,4.75
2023-05-03T10:57:59.032Z,4.00
2023-05-03T11:00:38.114Z,5.00
2023-05-03T11:03:23.971Z,2.75
2023-05-03T11:05:51.859Z,3.00
2023-05-03T11:08:19.576Z,2.75
2023-05-03T11:10:46.663Z,3.25
2023-05-03T11:13:13.301Z,3.25
2023-05-03T11:15:40.169Z,2.00
2023-05-03T11:18:12.108Z,3.00
2023-05-03T11:20:38.670Z,3.25
2023-05-03T11:23:06.108Z,3.00
2023-05-03T11:25:33.443Z,3.00
2023-05-03T11:28:01.400Z,2.00
2023-05-03T11:30:29.508Z,2.75
2023-05-03T11:32:56.747Z,2.50
2023-05-03T11:35:25.929Z,2.75
2023-05-03T11:37:52.729Z,3.00
2023-05-03T11:40:19.585Z,2.50
2023-05-03T11:42:52.821Z,4.75
2023-05-03T11:45:23.061Z,4.00
2023-05-03T11:47:50.035Z,3.00
2023-05-03T11:50:16.530Z,3.00
2023-05-03T11:52:43.171Z,3.50
2023-05-03T11:55:11.111Z,4.00
2023-05-03T11:57:38.091Z,2.50
2023-05-03T12:00:13.284Z,4.50
2023-05-03T12:02:40.082Z,4.75
2023-05-03T12:05:08.065Z,3.25
2023-05-03T12:07:36.611Z,4.25
2023-05-03T12:12:42.999Z,3.75
2023-05-03T12:15:16.328Z,4.00
2023-05-03T12:17:45.797Z,5.00
2023-05-03T12:22:58.383Z,2.00
2023-05-03T12:25:28.230Z,3.00
2023-05-03T12:28:17.576Z,4.00
2023-05-03T12:30:45.918Z,3.00
2023-05-03T12:33:15.315Z,2.25
2023-05-03T12:35:44.930Z,4.00
2023-05-03T12:38:16.336Z,4.75
2023-05-03T12:40:45.374Z,1.75
2023-05-03T12:43:12.319Z,3.50
2023-05-03T12:45:40.747Z,4.00
2023-05-03T12:48:08.479Z,3.50
2023-05-03T12:50:38.858Z,4.00
2023-05-03T12:53:09.431Z,2.75
2023-05-03T12:55:42.913Z,3.75
2023-05-03T13:00:48.903Z,2.00
2023-05-03T13:03:32.507Z,2.75
2023-05-03T13:06:00.866Z,4.00
2023-05-03T13:08:34.046Z,6.75
2023-05-03T13:11:01.596Z,3.25
2023-05-03T13:13:28.653Z,4.00
2023-05-03T13:15:55.375Z,6.00
2023-05-03T13:18:22.836Z,3.75
2023-05-03T13:20:50.659Z,3.25
2023-05-03T13:23:17.107Z,4.00
2023-05-03T13:25:44.847Z,3.00
2023-05-03T13:28:11.286Z,4.00
2023-05-03T13:30:37.716Z,5.25
2023-05-03T13:33:04.257Z,4.00
2023-05-03T13:35:30.943Z,1.25
2023-05-03T13:37:58.249Z,4.00
2023-05-03T13:40:24.797Z,40.25
2023-05-03T13:42:51.336Z,7.00
2023-05-03T13:45:18.466Z,4.00
2023-05-03T13:48:05.091Z,3.00
2023-05-03T13:50:31.412Z,4.00
2023-05-03T13:52:57.898Z,3.00
2023-05-03T13:55:26.403Z,4.00
2023-05-03T13:57:52.825Z,5.00
2023-05-03T14:00:20.912Z,4.00
2023-05-03T14:02:47.402Z,4.00
2023-05-03T14:05:14.336Z,4.25
2023-05-03T14:07:41.041Z,4.25
2023-05-03T14:10:08.288Z,4.75
2023-05-03T14:12:36.920Z,4.00
2023-05-03T14:15:04.153Z,3.25
2023-05-03T14:17:30.655Z,4.00
2023-05-03T14:19:58.116Z,3.00
2023-05-03T14:22:27.924Z,4.00
2023-05-03T14:24:54.421Z,4.00
2023-05-03T14:27:21.998Z,3.75
2023-05-03T14:29:48.605Z,3.00
2023-05-03T14:32:15.546Z,3.75
2023-05-03T14:34:41.947Z,4.00
2023-05-03T14:37:08.859Z,4.00
2023-05-03T14:39:36.476Z,5.50
2023-05-03T14:42:03.378Z,6.00
2023-05-03T14:44:29.831Z,6.75
2023-05-03T14:46:59.150Z,4.00
2023-05-03T14:49:25.712Z,11.75
2023-05-03T14:51:52.171Z,8.50
2023-05-03T14:54:19.769Z,12.75
2023-05-03T14:56:46.170Z,5.25
2023-05-03T14:59:12.981Z,6.50
2023-05-03T15:01:39.508Z,7.00
2023-05-03T15:04:07.902Z,6.00
2023-05-03T15:06:38.916Z,7.00
2023-05-03T15:09:05.772Z,11.00
2023-05-03T15:11:32.156Z,3.75
2023-05-03T15:14:01.490Z,6.00
2023-05-03T15:16:27.992Z,8.00
2023-05-03T15:18:54.458Z,9.50
2023-05-03T15:21:21.254Z,15.75
2023-05-03T15:23:51.749Z,6.75
2023-05-03T15:26:18.422Z,13.75
2023-05-03T15:28:44.809Z,5.00
2023-05-03T15:31:15.193Z,2.00
2023-05-03T15:33:43.103Z,3.75
2023-05-03T15:36:11.363Z,2.25
2023-05-03T15:38:37.923Z,2.50
2023-05-03T15:41:04.662Z,3.25
2023-05-03T15:43:31.113Z,3.00
2023-05-03T15:45:57.580Z,1.00
2023-05-03T15:48:24.167Z,4.25
2023-05-03T15:50:50.883Z,4.00
2023-05-03T15:53:20.202Z,5.25
2023-05-03T15:55:47.060Z,3.25
2023-05-03T15:58:14.101Z,2.75
2023-05-03T16:00:40.514Z,5.00
2023-05-03T16:03:06.982Z,4.25
2023-05-03T16:05:33.467Z,4.00
2023-05-03T16:08:00.145Z,4.50
2023-05-03T16:10:26.784Z,4.00
2023-05-03T16:12:53.403Z,3.75
2023-05-03T16:15:19.819Z,3.00
2023-05-03T16:17:46.435Z,3.00
2023-05-03T16:20:13.075Z,4.00
2023-05-03T16:22:39.507Z,1.00
2023-05-03T16:25:11.003Z,3.00
2023-05-03T16:27:38.224Z,3.25
2023-05-03T16:30:05.413Z,6.00
2023-05-03T16:32:32.186Z,5.00
2023-05-03T16:34:58.621Z,10.00
2023-05-03T16:37:25.054Z,22.00
2023-05-03T16:39:51.498Z,10.00
2023-05-03T16:42:18.820Z,6.50
2023-05-03T16:44:45.207Z,7.50
2023-05-03T16:47:11.584Z,5.00
2023-05-03T16:49:38.007Z,6.50
2023-05-03T16:52:04.556Z,3.00
2023-05-03T16:54:31.237Z,7.50
2023-05-03T16:56:57.682Z,10.75
2023-05-03T16:59:24.619Z,13.75
2023-05-03T17:01:51.472Z,9.25
2023-05-03T17:04:18.076Z,12.00
2023-05-03T17:06:44.479Z,5.00
2023-05-03T17:09:10.932Z,9.25
2023-05-03T17:11:37.393Z,4.00
2023-05-03T17:14:03.793Z,5.00
2023-05-03T17:16:30.590Z,15.00
2023-05-03T17:18:56.981Z,15.25
2023-05-03T17:21:24.963Z,9.25
2023-05-03T17:23:51.554Z,5.00
2023-05-03T17:26:17.994Z,20.00
2023-05-03T17:28:44.372Z,10.75
2023-05-03T17:31:10.949Z,7.00
2023-05-03T17:33:37.529Z,5.75
2023-05-03T17:36:06.658Z,12.75
2023-05-03T17:38:33.729Z,9.25
2023-05-03T17:41:10.359Z,10.25
2023-05-03T17:43:37.339Z,9.75
2023-05-03T17:46:13.573Z,8.50
2023-05-03T17:48:44.514Z,5.25
2023-05-03T17:51:13.336Z,5.00
2023-05-03T17:53:40.140Z,7.50
2023-05-03T17:56:16.210Z,7.00
2023-05-03T17:58:42.788Z,6.25
2023-05-03T18:01:10.965Z,5.25
2023-05-03T18:03:37.717Z,7.00
2023-05-03T18:06:05.215Z,7.75
2023-05-03T18:08:31.737Z,7.50
2023-05-03T18:10:58.130Z,8.75
2023-05-03T18:13:24.733Z,9.75
2023-05-03T18:15:51.383Z,10.00
2023-05-03T18:18:17.830Z,14.50
2023-05-03T18:20:44.312Z,16.25
2023-05-03T18:23:10.723Z,15.25
2023-05-03T18:25:37.178Z,14.75
2023-05-03T18:28:03.595Z,13.75
2023-05-03T18:30:30.004Z,11.25
2023-05-03T18:32:56.551Z,11.00
2023-05-03T18:35:23.197Z,11.00
2023-05-03T18:37:49.623Z,2.00
2023-05-03T18:40:16.361Z,11.50
2023-05-03T18:42:42.907Z,13.00
2023-05-03T18:45:09.479Z,10.50
2023-05-03T18:47:35.936Z,13.00
2023-05-03T18:50:04.277Z,15.25
2023-05-03T18:52:30.785Z,12.33
2023-05-03T18:54:57.183Z,16.67
2023-05-03T18:57:23.665Z,25.00
2023-05-03T18:59:59.964Z,23.00
2023-05-03T19:02:30.616Z,21.33
2023-05-03T19:04:57.556Z,25.50
2023-05-03T19:07:24.192Z,26.75
2023-05-03T19:09:57.347Z,30.00
2023-05-03T19:12:24.028Z,32.00
2023-05-03T19:14:50.494Z,32.00
2023-05-03T19:17:16.984Z,35.50
2023-05-03T19:19:43.465Z,34.75
2023-05-03T19:22:09.854Z,34.25
2023-05-03T19:24:36.589Z,37.00
2023-05-03T19:27:04.551Z,33.00
2023-05-03T19:29:31.114Z,18.00
2023-05-03T19:31:57.514Z,35.00
2023-05-03T19:34:23.929Z,14.50
2023-05-03T19:36:50.430Z,34.00
2023-05-03T19:39:17.066Z,34.25
2023-05-03T19:41:43.620Z,34.75
2023-05-03T19:44:10.145Z,36.50
2023-05-03T19:46:36.840Z,35.00
2023-05-03T19:49:03.445Z,35.50
2023-05-03T19:51:30.138Z,36.00
2023-05-03T19:53:57.540Z,34.00
2023-05-03T19:56:25.192Z,35.00
2023-05-03T19:58:51.636Z,35.25
2023-05-03T20:01:18.190Z,36.75
2023-05-03T20:03:44.910Z,35.75
2023-05-03T20:06:11.451Z,38.00
2023-05-03T20:08:37.998Z,34.00
2023-05-03T20:11:04.345Z,30.00
2023-05-03T20:13:30.923Z,31.00
2023-05-03T20:15:57.296Z,31.00
2023-05-03T20:18:23.873Z,29.25
2023-05-03T20:20:50.341Z,31.50
2023-05-03T20:23:17.298Z,30.50
2023-05-03T20:25:43.701Z,27.75
2023-05-03T20:28:10.193Z,33.25
2023-05-03T20:30:36.767Z,33.50
2023-05-03T20:33:03.320Z,28.00
2023-05-03T20:35:29.807Z,34.75
2023-05-03T20:37:56.267Z,39.00
2023-05-03T20:40:22.784Z,37.50
2023-05-03T20:42:49.259Z,38.75
2023-05-03T20:45:15.836Z,39.25
2023-05-03T20:47:42.553Z,35.25
2023-05-03T20:50:09.391Z,36.75
2023-05-03T20:52:36.223Z,38.00
2023-05-03T20:55:02.665Z,33.00
2023-05-03T20:57:29.245Z,35.25
2023-05-03T20:59:55.862Z,34.25
2023-05-03T21:02:22.318Z,32.00
2023-05-03T21:04:49.969Z,29.50
2023-05-03T21:07:16.466Z,31.00
2023-05-03T21:09:42.853Z,25.75
2023-05-03T21:12:09.770Z,28.25
2023-05-03T21:14:36.264Z,31.50
2023-05-03T21:17:02.916Z,31.75
2023-05-03T21:19:29.556Z,34.00
2023-05-03T21:21:56.334Z,35.50
2023-05-03T21:24:25.611Z,31.50
2023-05-03T21:26:52.004Z,29.75
2023-05-03T21:29:18.472Z,34.00
2023-05-03T21:31:44.894Z,32.00
2023-05-03T21:34:11.371Z,29.50
2023-05-03T21:36:37.823Z,29.25
2023-05-03T21:39:05.095Z,33.00
2023-05-03T21:41:31.602Z,33.00
2023-05-03T21:43:58.000Z,30.25
2023-05-03T21:46:24.473Z,27.00
2023-05-03T21:48:50.884Z,35.00
2023-05-03T21:51:17.916Z,35.00
2023-05-03T21:53:44.370Z,31.00
2023-05-03T21:56:10.852Z,29.00
2023-05-03T21:58:37.802Z,34.50
2023-05-03T22:01:04.206Z,34.00
2023-05-03T22:03:30.817Z,33.50
2023-05-03T22:05:57.731Z,33.00
2023-05-03T22:08:24.128Z,32.00
2023-05-03T22:10:50.612Z,33.75
2023-05-03T22:13:18.054Z,31.00
2023-05-03T22:15:44.553Z,26.00
2023-05-03T22:18:11.507Z,32.00
2023-05-03T22:20:37.864Z,30.50
2023-05-03T22:23:04.599Z,31.25
2023-05-03T22:25:32.460Z,30.50
2023-05-03T22:27:59.176Z,32.00
2023-05-03T22:30:25.561Z,29.25
2023-05-03T22:32:52.121Z,27.00
2023-05-03T22:35:18.611Z,33.25
2023-05-03T22:37:45.026Z,29.75
2023-05-03T22:40:11.978Z,28.75
2023-05-03T22:42:38.404Z,28.25
2023-05-03T22:45:05.653Z,11.50
2023-05-03T22:47:32.132Z,25.25
2023-05-03T22:49:58.564Z,23.00
2023-05-03T22:52:24.946Z,26.75
2023-05-03T22:54:54.808Z,26.25
2023-05-03T22:57:21.216Z,24.00
2023-05-03T22:59:47.592Z,25.50
2023-05-03T23:02:13.961Z,26.25
2023-05-03T23:04:40.420Z,20.75
2023-05-03T23:07:06.883Z,16.75
2023-05-03T23:09:33.431Z,12.75
2023-05-03T23:12:00.561Z,19.00
2023-05-03T23:14:26.999Z,17.00
2023-05-03T23:16:53.431Z,18.00
2023-05-03T23:19:19.919Z,23.25
2023-05-03T23:21:46.296Z,18.00
2023-05-03T23:24:12.986Z,18.00
2023-05-03T23:26:39.666Z,20.75
2023-05-03T23:29:06.689Z,18.00
2023-05-03T23:31:34.528Z,19.50
2023-05-03T23:34:05.011Z,25.25
2023-05-03T23:36:32.775Z,18.75
2023-05-03T23:38:59.153Z,23.75
2023-05-03T23:41:26.210Z,29.00
2023-05-03T23:43:52.792Z,30.00
2023-05-03T23:46:19.303Z,33.00
2023-05-03T23:48:46.040Z,34.00
2023-05-03T23:51:12.427Z,30.75
2023-05-03T23:53:38.806Z,33.50
2023-05-03T23:56:05.169Z,25.25
2023-05-03T23:58:31.670Z,26.00
